createdAt,value
2023-02-11T00:01:24.471Z,18.37
2023-02-11T00:03:52.246Z,15.93
2023-02-11T00:06:19.085Z,16.37
2023-02-11T00:08:46.284Z,15.57
2023-02-11T00:11:15.936Z,15.37
2023-02-11T00:13:44.300Z,14.20
2023-02-11T00:16:15.145Z,16.33
2023-02-11T00:18:42.052Z,13.87
2023-02-11T00:21:18.359Z,12.97
2023-02-11T00:23:46.152Z,13.20
2023-02-11T00:26:20.476Z,13.57
2023-02-11T00:28:48.774Z,12.70
2023-02-11T00:31:17.363Z,12.93
2023-02-11T00:33:44.900Z,12.57
2023-02-11T00:36:23.909Z,11.77
2023-02-11T00:38:52.611Z,11.68
2023-02-11T00:41:20.213Z,12.70
2023-02-11T00:43:47.781Z,12.27
2023-02-11T00:46:15.861Z,11.53
2023-02-11T00:48:43.016Z,10.83
2023-02-11T00:51:10.419Z,10.83
2023-02-11T00:53:37.384Z,10.07
2023-02-11T00:56:04.774Z,12.40
2023-02-11T00:58:31.695Z,11.60
2023-02-11T01:00:58.584Z,12.20
2023-02-11T01:03:25.782Z,12.93
2023-02-11T01:05:53.137Z,11.90
2023-02-11T01:08:20.109Z,11.37
2023-02-11T01:11:01.331Z,13.03
2023-02-11T01:13:29.342Z,12.77
2023-02-11T01:15:56.766Z,12.67
2023-02-11T01:18:24.760Z,14.80
2023-02-11T01:20:52.644Z,13.10
2023-02-11T01:23:19.910Z,15.63
2023-02-11T01:25:46.797Z,13.53
2023-02-11T01:28:23.239Z,15.43
2023-02-11T01:30:50.557Z,13.77
2023-02-11T01:33:17.908Z,16.47
2023-02-11T02:30:08.410Z,16.03
2023-02-11T02:33:16.752Z,16.60
2023-02-11T02:36:07.470Z,20.70
2023-02-11T02:38:53.356Z,21.80
2023-02-11T02:41:25.205Z,21.13
2023-02-11T02:43:52.945Z,19.17
2023-02-11T04:51:03.170Z,17.17
2023-02-11T04:53:29.964Z,17.90
2023-02-11T04:55:56.836Z,15.73
2023-02-11T04:58:24.516Z,16.83
2023-02-11T05:00:51.512Z,15.17
2023-02-11T05:03:18.729Z,17.27
2023-02-11T06:27:10.184Z,24.57
2023-02-11T06:29:37.071Z,22.93
2023-02-11T06:32:04.553Z,22.53
2023-02-11T06:34:31.488Z,24.40
2023-02-11T06:36:58.433Z,25.10
2023-02-11T06:39:25.380Z,25.40
2023-02-11T06:41:52.281Z,23.47
2023-02-11T06:44:19.210Z,25.17
2023-02-11T07:16:52.929Z,22.07
2023-02-11T07:19:20.149Z,21.60
2023-02-11T07:21:48.883Z,22.13
2023-02-11T07:24:15.867Z,18.75
2023-02-11T07:26:42.668Z,26.07
2023-02-11T07:29:09.568Z,24.07
2023-02-11T07:31:36.563Z,22.13
2023-02-11T07:34:03.659Z,22.43
2023-02-11T07:36:32.211Z,22.27
2023-02-11T07:39:00.510Z,22.93
2023-02-11T07:41:27.861Z,21.30
2023-02-11T07:43:55.404Z,18.03
2023-02-11T07:46:27.574Z,19.93
2023-02-11T07:48:55.439Z,21.47
2023-02-11T07:51:25.379Z,19.53
2023-02-11T07:53:53.610Z,18.47
2023-02-11T07:56:21.374Z,15.90
2023-02-11T07:58:49.039Z,19.80
2023-02-11T08:01:25.559Z,19.87
2023-02-11T08:03:53.106Z,15.97
2023-02-11T08:06:21.739Z,18.07
2023-02-11T08:08:48.785Z,20.23
2023-02-11T08:11:18.276Z,18.43
2023-02-11T08:13:45.580Z,17.45
2023-02-11T08:16:41.701Z,20.20
2023-02-11T08:19:13.154Z,20.50
2023-02-11T08:21:40.772Z,19.30
2023-02-11T08:24:08.011Z,22.70
2023-02-11T08:26:35.249Z,21.07
2023-02-11T08:29:13.300Z,19.77
2023-02-11T08:31:42.709Z,17.40
2023-02-11T08:36:39.651Z,17.98
2023-02-11T08:39:19.239Z,20.67
2023-02-11T08:41:51.994Z,17.97
2023-02-11T08:44:20.072Z,21.60
2023-02-11T08:46:47.377Z,19.33
2023-02-11T08:49:15.280Z,17.80
2023-02-11T08:51:42.180Z,17.17
2023-02-11T08:54:10.199Z,17.37
2023-02-11T08:56:38.834Z,17.57
2023-02-11T08:59:07.243Z,15.52
2023-02-11T09:01:34.567Z,16.37
2023-02-11T09:04:01.723Z,15.47
2023-02-11T09:06:29.427Z,15.33
2023-02-11T09:08:57.994Z,16.00
2023-02-11T09:11:32.069Z,17.13
2023-02-11T09:13:59.204Z,15.60
2023-02-11T09:16:28.855Z,14.37
2023-02-11T09:19:00.491Z,14.43
2023-02-11T09:21:28.144Z,15.50
2023-02-11T09:23:55.365Z,13.30
2023-02-11T09:26:25.114Z,12.80
2023-02-11T09:28:52.157Z,13.77
2023-02-11T09:31:22.302Z,14.27
2023-02-11T09:33:52.206Z,13.83
2023-02-11T09:36:24.047Z,14.47
2023-02-11T09:38:51.948Z,13.40
2023-02-11T09:41:24.861Z,13.60
2023-02-11T09:44:05.095Z,13.80
2023-02-11T09:46:41.970Z,13.40
2023-02-11T09:49:20.020Z,14.37
2023-02-11T09:52:01.837Z,13.33
2023-02-11T09:54:36.000Z,12.12
2023-02-11T09:57:03.064Z,13.57
2023-02-11T09:59:30.646Z,13.37
2023-02-11T10:02:02.937Z,13.87
2023-02-11T10:04:45.272Z,13.68
2023-02-11T10:08:10.055Z,13.90
2023-02-11T10:10:46.014Z,11.60
2023-02-11T10:13:45.886Z,12.40
2023-02-11T10:16:45.545Z,11.83
2023-02-11T10:19:33.820Z,12.03
2023-02-11T10:22:12.430Z,10.60
2023-02-11T10:24:43.566Z,11.45
2023-02-11T10:27:20.672Z,11.67
2023-02-11T10:29:57.100Z,10.13
2023-02-11T10:32:32.988Z,9.53
2023-02-11T10:35:10.627Z,13.50
2023-02-11T10:37:37.539Z,11.67
2023-02-11T10:40:06.947Z,11.73
2023-02-11T10:42:35.508Z,9.60
2023-02-11T10:45:07.525Z,10.40
2023-02-11T10:47:38.058Z,11.90
2023-02-11T10:50:29.529Z,10.63
2023-02-11T10:53:12.758Z,11.20
2023-02-11T10:55:49.508Z,11.77
2023-02-11T10:58:29.364Z,10.70
2023-02-11T11:00:57.645Z,11.17
2023-02-11T11:03:27.289Z,10.87
2023-02-11T11:06:02.877Z,11.57
2023-02-11T11:08:46.045Z,15.07
2023-02-11T11:11:18.885Z,55.17
2023-02-11T11:14:00.823Z,59.03
2023-02-11T11:16:35.761Z,87.60
2023-02-11T11:19:08.611Z,12.53
2023-02-11T11:22:07.590Z,23.27
2023-02-11T11:24:44.507Z,10.48
2023-02-11T11:27:19.741Z,11.27
2023-02-11T11:29:50.024Z,10.53
2023-02-11T11:32:22.545Z,10.13
2023-02-11T11:34:55.793Z,12.00
2023-02-11T11:37:39.053Z,8.90
2023-02-11T11:40:33.116Z,10.23
2023-02-11T11:43:25.378Z,10.37
2023-02-11T11:45:57.989Z,8.23
2023-02-11T11:48:51.989Z,8.67
2023-02-11T11:51:19.444Z,8.03
2023-02-11T11:53:51.428Z,7.90
2023-02-11T11:56:27.408Z,8.63
2023-02-11T11:58:54.734Z,9.20
2023-02-11T12:01:39.493Z,8.90
2023-02-11T12:04:43.057Z,9.77
2023-02-11T12:07:32.773Z,8.97
2023-02-11T12:10:14.896Z,9.40
2023-02-11T12:12:53.788Z,8.23
2023-02-11T12:15:44.399Z,7.47
2023-02-11T12:18:33.055Z,7.40
2023-02-11T12:21:18.597Z,7.35
2023-02-11T12:24:17.435Z,8.67
2023-02-11T12:26:50.074Z,7.45
2023-02-11T12:29:38.405Z,7.20
2023-02-11T12:32:58.355Z,8.00
2023-02-11T12:35:46.984Z,7.77
2023-02-11T12:38:38.194Z,8.68
2023-02-11T12:41:44.732Z,8.53
2023-02-11T12:44:34.351Z,7.80
2023-02-11T12:47:35.531Z,7.87
2023-02-11T12:50:05.494Z,9.70
2023-02-11T12:52:55.812Z,9.03
2023-02-11T12:55:29.428Z,10.13
2023-02-11T12:58:00.941Z,8.73
2023-02-11T13:00:40.553Z,8.53
2023-02-11T13:03:18.471Z,8.13
2023-02-11T13:05:51.531Z,9.50
2023-02-11T13:08:42.098Z,9.43
2023-02-11T13:11:15.354Z,9.10
2023-02-11T13:13:45.247Z,8.07
2023-02-11T13:16:37.356Z,8.17
2023-02-11T13:19:13.311Z,8.73
2023-02-11T13:21:40.150Z,7.97
2023-02-11T13:24:15.600Z,7.53
2023-02-11T13:27:00.478Z,7.90
2023-02-11T13:29:36.676Z,7.73
2023-02-11T13:32:13.398Z,8.00
2023-02-11T13:34:59.086Z,7.30
2023-02-11T13:37:34.618Z,8.17
2023-02-11T13:40:04.039Z,7.90
2023-02-11T13:42:34.342Z,8.00
2023-02-11T13:45:01.595Z,7.43
2023-02-11T13:47:37.713Z,8.10
2023-02-11T13:50:08.391Z,8.13
2023-02-11T13:52:38.952Z,9.60
2023-02-11T13:55:14.539Z,8.13
2023-02-11T13:57:42.040Z,10.20
2023-02-11T14:00:45.923Z,9.23
2023-02-11T14:03:31.164Z,8.93
2023-02-11T14:06:29.057Z,7.87
2023-02-11T14:09:14.105Z,7.60
2023-02-11T14:11:43.460Z,7.27
2023-02-11T14:14:29.176Z,8.55
2023-02-11T14:17:02.002Z,8.20
2023-02-11T14:19:37.619Z,8.40
2023-02-11T14:22:13.664Z,8.27
2023-02-11T14:24:49.274Z,8.63
2023-02-11T14:27:35.359Z,10.00
2023-02-11T14:30:26.373Z,8.63
2023-02-11T14:33:20.620Z,9.10
2023-02-11T14:36:09.037Z,7.97
2023-02-11T14:38:38.637Z,9.90
2023-02-11T14:41:11.083Z,9.67
2023-02-11T14:43:47.066Z,10.23
2023-02-11T14:46:17.114Z,10.10
2023-02-11T14:48:48.946Z,10.60
2023-02-11T14:51:27.256Z,10.07
2023-02-11T14:54:00.847Z,10.43
2023-02-11T14:56:32.090Z,10.20
2023-02-11T14:58:58.920Z,10.10
2023-02-11T15:01:37.958Z,9.43
2023-02-11T15:04:06.964Z,9.90
2023-02-11T15:06:37.978Z,9.52
2023-02-11T15:09:15.050Z,10.17
2023-02-11T15:11:44.913Z,12.03
2023-02-11T15:14:22.798Z,12.57
2023-02-11T15:16:53.585Z,14.93
2023-02-11T15:19:34.285Z,15.57
2023-02-11T15:22:04.282Z,13.47
2023-02-11T15:24:33.631Z,13.20
2023-02-11T15:27:08.426Z,12.35
2023-02-11T15:29:43.656Z,17.43
2023-02-11T15:32:10.568Z,16.93
2023-02-11T15:34:37.699Z,18.50
2023-02-11T15:37:13.159Z,16.20
2023-02-11T15:39:42.343Z,14.20
2023-02-11T15:42:19.974Z,18.45
2023-02-11T15:44:54.262Z,22.73
2023-02-11T15:47:23.644Z,25.50
2023-02-11T15:49:51.646Z,23.10
2023-02-11T15:52:25.785Z,26.00
2023-02-11T15:54:54.203Z,30.33
2023-02-11T15:57:22.745Z,25.73
2023-02-11T15:59:53.152Z,64.87
2023-02-11T16:02:31.102Z,30.33
2023-02-11T16:05:01.632Z,27.20
2023-02-11T16:07:45.121Z,26.30
2023-02-11T16:10:26.516Z,27.60
2023-02-11T16:13:06.629Z,23.13
2023-02-11T16:15:39.887Z,28.57
2023-02-11T16:18:38.657Z,32.27
2023-02-11T16:21:07.969Z,34.95
2023-02-11T16:23:38.141Z,36.50
2023-02-11T16:26:10.910Z,31.37
2023-02-11T16:28:38.486Z,28.07
2023-02-11T16:31:06.497Z,35.80
2023-02-11T16:33:33.577Z,23.43
2023-02-11T16:36:02.311Z,37.47
2023-02-11T16:38:30.585Z,27.90
2023-02-11T16:40:57.502Z,25.53
2023-02-11T16:43:24.418Z,43.50
2023-02-11T16:45:51.478Z,30.30
2023-02-11T16:48:20.357Z,32.03
2023-02-11T16:50:52.862Z,28.35
2023-02-11T16:53:24.199Z,32.77
2023-02-11T16:55:52.956Z,28.23
2023-02-11T16:58:19.946Z,20.23
2023-02-11T17:00:47.975Z,18.37
2023-02-11T17:03:23.127Z,23.47
2023-02-11T17:05:55.658Z,28.00
2023-02-11T17:08:23.416Z,30.00
2023-02-11T17:10:50.909Z,30.10
2023-02-11T17:13:18.023Z,38.17
2023-02-11T17:15:44.930Z,33.40
2023-02-11T17:18:14.977Z,34.77
2023-02-11T17:20:42.016Z,34.23
2023-02-11T17:23:09.288Z,29.60
2023-02-11T17:25:38.881Z,31.03
2023-02-11T17:30:33.379Z,34.90
2023-02-11T17:33:00.375Z,33.83
2023-02-11T17:35:27.574Z,34.57
2023-02-11T17:37:54.746Z,34.83
2023-02-11T17:40:22.259Z,35.20
2023-02-11T17:42:50.300Z,31.40
2023-02-11T17:45:17.298Z,37.27
2023-02-11T17:47:44.215Z,39.13
2023-02-11T17:50:11.422Z,38.80
2023-02-11T17:52:38.411Z,35.13
2023-02-11T17:55:06.497Z,28.17
2023-02-11T17:57:34.541Z,27.97
2023-02-11T18:00:01.596Z,23.20
2023-02-11T18:02:28.421Z,25.50
2023-02-11T18:04:57.703Z,21.87
2023-02-11T18:07:25.966Z,33.97
2023-02-11T18:09:53.067Z,37.47
2023-02-11T18:12:26.386Z,21.37
2023-02-11T18:14:56.851Z,15.70
2023-02-11T18:17:24.848Z,16.87
2023-02-11T18:19:55.946Z,19.60
2023-02-11T18:22:23.289Z,16.73
2023-02-11T18:24:54.157Z,12.27
2023-02-11T18:27:23.509Z,13.60
2023-02-11T18:29:50.756Z,13.60
2023-02-11T18:32:17.588Z,13.33
2023-02-11T18:34:44.475Z,14.87
2023-02-11T18:37:13.473Z,15.20
2023-02-11T18:39:40.753Z,13.93
2023-02-11T18:42:07.704Z,15.50
2023-02-11T18:44:34.705Z,19.50
2023-02-11T18:47:01.556Z,18.83
2023-02-11T18:49:28.579Z,21.50
2023-02-11T18:51:55.493Z,20.90
2023-02-11T18:54:23.771Z,24.40
2023-02-11T18:56:50.673Z,30.80
2023-02-11T18:59:17.574Z,31.13
2023-02-11T19:01:47.075Z,28.53
2023-02-11T19:06:49.677Z,25.23
2023-02-11T19:09:19.620Z,26.63
2023-02-11T19:11:54.369Z,25.73
2023-02-11T19:14:26.812Z,22.60
2023-02-11T19:16:57.129Z,22.13
2023-02-11T19:19:26.134Z,22.40
2023-02-11T19:21:53.107Z,20.15
2023-02-11T19:24:20.454Z,29.03
2023-02-11T19:26:48.510Z,25.43
2023-02-11T19:29:16.021Z,26.80
2023-02-11T19:31:45.418Z,19.37
2023-02-11T19:36:42.023Z,19.83
2023-02-11T19:39:09.898Z,21.57
2023-02-11T19:41:37.195Z,20.73
2023-02-11T19:44:05.337Z,18.10
2023-02-11T19:46:35.111Z,18.63
2023-02-11T19:49:03.295Z,18.53
2023-02-11T19:51:31.021Z,18.80
2023-02-11T19:53:58.439Z,18.40
2023-02-11T19:56:25.571Z,15.97
2023-02-11T19:58:52.535Z,12.10
2023-02-11T20:01:21.952Z,9.43
2023-02-11T20:06:20.283Z,10.47
2023-02-11T20:08:47.124Z,11.17
2023-02-11T20:11:17.481Z,9.47
2023-02-11T20:13:44.522Z,11.97
2023-02-11T20:16:19.833Z,11.10
2023-02-11T20:18:48.302Z,14.87
2023-02-11T20:21:17.767Z,14.80
2023-02-11T20:26:16.367Z,14.25
2023-02-11T20:28:43.800Z,14.07
2023-02-11T20:31:12.074Z,14.50
2023-02-11T20:33:40.165Z,14.47
2023-02-11T20:36:10.672Z,15.73
2023-02-11T20:38:37.972Z,19.23
2023-02-11T20:41:09.786Z,19.33
2023-02-11T20:43:38.059Z,21.50
2023-02-11T20:46:06.223Z,20.87
2023-02-11T20:48:34.263Z,19.83
2023-02-11T20:51:10.415Z,17.07
2023-02-11T20:53:39.037Z,16.30
2023-02-11T20:56:08.709Z,20.55
2023-02-11T21:01:14.203Z,18.77
2023-02-11T21:03:44.027Z,16.87
2023-02-11T21:06:11.715Z,18.60
2023-02-11T21:08:38.725Z,16.47
2023-02-11T21:11:09.037Z,16.37
2023-02-11T21:13:37.584Z,12.40
2023-02-11T21:16:05.391Z,13.47
2023-02-11T21:18:32.572Z,13.27
2023-02-11T21:20:59.517Z,10.03
2023-02-11T21:23:26.742Z,9.87
2023-02-11T21:25:54.533Z,7.70
2023-02-11T21:28:26.565Z,8.17
2023-02-11T21:30:55.229Z,10.67
2023-02-11T21:33:23.560Z,7.65
2023-02-11T21:35:56.032Z,9.13
2023-02-11T21:38:23.790Z,9.03
2023-02-11T21:40:51.273Z,9.23
2023-02-11T21:43:18.932Z,7.37
2023-02-11T21:45:48.104Z,7.43
2023-02-11T21:48:16.648Z,8.73
2023-02-11T21:50:46.608Z,8.83
2023-02-11T21:53:14.259Z,9.23
2023-02-11T21:55:41.773Z,11.27
2023-02-11T21:58:09.666Z,7.87
2023-02-11T22:00:36.734Z,6.10
2023-02-11T22:03:03.778Z,6.30
2023-02-11T22:05:30.756Z,5.90
2023-02-11T22:07:57.832Z,7.23
2023-02-11T22:10:25.089Z,5.90
2023-02-11T22:12:51.927Z,6.23
2023-02-11T22:15:18.851Z,6.63
2023-02-11T22:17:45.772Z,6.50
2023-02-11T22:20:12.839Z,7.00
2023-02-11T22:22:39.764Z,6.13
2023-02-11T22:25:07.107Z,7.33
2023-02-11T22:27:34.002Z,7.70
2023-02-11T22:30:00.955Z,8.13
2023-02-11T22:32:27.892Z,7.50
2023-02-11T22:34:55.666Z,7.00
2023-02-11T22:37:22.619Z,7.73
2023-02-11T22:39:49.465Z,8.40
2023-02-11T22:42:16.334Z,8.83
2023-02-11T22:44:43.126Z,8.50
2023-02-11T22:47:10.186Z,9.47
2023-02-11T22:49:37.124Z,8.77
2023-02-11T22:52:04.522Z,7.43
2023-02-11T22:54:31.961Z,6.50
2023-02-11T22:56:58.849Z,6.80
2023-02-11T22:59:25.714Z,7.43
2023-02-11T23:01:52.751Z,7.47
2023-02-11T23:04:19.775Z,7.27
2023-02-11T23:06:47.925Z,6.70
2023-02-11T23:09:15.068Z,7.50
2023-02-11T23:11:42.068Z,9.57
2023-02-11T23:14:12.216Z,10.50
2023-02-11T23:16:39.536Z,8.50
2023-02-11T23:19:08.907Z,9.20
2023-02-11T23:21:39.069Z,9.10
2023-02-11T23:24:15.715Z,10.17
2023-02-11T23:26:43.771Z,8.17
2023-02-11T23:29:11.646Z,9.93
2023-02-11T23:31:40.879Z,9.67
2023-02-11T23:34:08.905Z,9.43
2023-02-11T23:36:36.279Z,11.27
2023-02-11T23:39:03.591Z,12.00
2023-02-11T23:41:31.262Z,11.00
2023-02-11T23:43:59.478Z,12.87
2023-02-11T23:46:27.286Z,12.53
2023-02-11T23:48:54.248Z,8.83
2023-02-11T23:51:22.247Z,9.73
2023-02-11T23:53:49.830Z,9.30
2023-02-11T23:56:19.594Z,8.13
2023-02-11T23:58:52.915Z,9.23
